createdAt,value
2019-03-28T00:00:45.396Z,43.06
2019-03-28T00:02:38.398Z,40.58
2019-03-28T00:03:38.436Z,39.34
2019-03-28T00:05:31.419Z,39.06
2019-03-28T00:06:31.479Z,39.82
2019-03-28T00:08:24.490Z,38.10
2019-03-28T00:09:24.525Z,37.82
2019-03-28T00:11:17.533Z,38.68
2019-03-28T00:12:17.565Z,39.73
2019-03-28T00:14:10.624Z,37.54
2019-03-28T00:15:10.664Z,38.10
2019-03-28T00:17:03.665Z,38.96
2019-03-28T00:18:03.703Z,39.73
2019-03-28T00:19:56.691Z,40.39
2019-03-28T00:20:56.747Z,39.53
2019-03-28T00:22:49.753Z,40.39
2019-03-28T00:23:49.783Z,40.77
2019-03-28T00:25:42.762Z,43.16
2019-03-28T00:26:42.820Z,43.35
2019-03-28T00:28:35.826Z,42.77
2019-03-28T00:29:35.866Z,43.91
2019-03-28T00:31:28.848Z,44.39
2019-03-28T00:32:28.909Z,43.91
2019-03-28T00:34:21.904Z,45.44
2019-03-28T00:35:21.942Z,44.68
2019-03-28T00:37:14.946Z,44.87
2019-03-28T00:38:14.982Z,44.87
2019-03-28T00:40:07.993Z,44.78
2019-03-28T00:41:08.032Z,43.63
2019-03-28T00:43:01.029Z,42.58
2019-03-28T00:44:01.068Z,42.49
2019-03-28T00:45:54.072Z,42.49
2019-03-28T00:46:54.111Z,43.35
2019-03-28T00:48:47.118Z,43.16
2019-03-28T00:49:47.161Z,44.01
2019-03-28T00:51:43.005Z,44.39
2019-03-28T00:52:40.200Z,45.73
2019-03-28T00:54:33.197Z,45.54
2019-03-28T00:55:33.233Z,46.11
2019-03-28T00:57:26.235Z,47.06
2019-03-28T00:58:26.271Z,47.73
2019-03-28T01:00:19.276Z,47.34
2019-03-28T01:01:19.323Z,46.78
2019-03-28T01:03:12.300Z,47.06
2019-03-28T01:04:12.355Z,47.82
2019-03-28T01:06:05.353Z,46.49
2019-03-28T01:07:05.391Z,46.58
2019-03-28T01:08:58.392Z,44.49
2019-03-28T01:09:58.430Z,44.49
2019-03-28T01:11:51.422Z,43.91
2019-03-28T01:12:51.471Z,43.54
2019-03-28T01:14:44.445Z,43.44
2019-03-28T01:15:44.503Z,43.16
2019-03-28T01:17:37.513Z,41.72
2019-03-28T01:18:37.543Z,41.25
2019-03-28T01:20:30.534Z,41.16
2019-03-28T01:21:30.587Z,41.63
2019-03-28T01:23:23.577Z,41.44
2019-03-28T01:24:23.624Z,42.87
2019-03-28T01:26:16.631Z,43.25
2019-03-28T01:27:16.663Z,43.91
2019-03-28T01:29:09.642Z,41.63
2019-03-28T01:30:09.700Z,41.53
2019-03-28T01:32:02.704Z,41.63
2019-03-28T01:33:02.745Z,43.54
2019-03-28T01:34:55.743Z,41.92
2019-03-28T01:35:55.798Z,41.82
2019-03-28T01:37:48.805Z,42.68
2019-03-28T01:38:48.847Z,41.82
2019-03-28T01:40:41.847Z,42.40
2019-03-28T01:41:41.887Z,43.16
2019-03-28T01:43:34.870Z,43.44
2019-03-28T01:44:34.926Z,41.63
2019-03-28T01:46:27.933Z,41.25
2019-03-28T01:47:27.968Z,41.53
2019-03-28T01:49:20.964Z,41.53
2019-03-28T01:50:21.022Z,41.89
2019-03-28T01:52:14.019Z,41.72
2019-03-28T01:53:14.058Z,40.97
2019-03-28T01:55:07.040Z,41.72
2019-03-28T01:56:07.098Z,40.48
2019-03-28T01:58:00.101Z,39.14
2019-03-28T01:59:00.134Z,39.06
2019-03-28T02:00:53.137Z,38.37
2019-03-28T02:01:53.159Z,38.20
2019-03-28T02:03:46.155Z,39.04
2019-03-28T02:04:46.213Z,39.42
2019-03-28T02:06:39.210Z,38.37
2019-03-28T02:07:39.249Z,36.85
2019-03-28T02:09:32.371Z,36.94
2019-03-28T02:10:32.289Z,36.47
2019-03-28T02:12:25.303Z,36.18
2019-03-28T02:13:25.330Z,36.08
2019-03-28T02:15:18.409Z,36.47
2019-03-28T02:16:18.365Z,36.76
2019-03-28T02:18:11.369Z,36.85
2019-03-28T02:19:11.410Z,35.80
2019-03-28T02:21:04.408Z,34.28
2019-03-28T02:22:04.446Z,34.18
2019-03-28T02:23:57.423Z,34.09
2019-03-28T02:24:57.483Z,33.80
2019-03-28T02:26:50.473Z,33.42
2019-03-28T02:27:51.197Z,33.80
2019-03-28T02:29:43.519Z,33.99
2019-03-28T02:30:43.558Z,35.33
2019-03-28T02:32:36.558Z,36.28
2019-03-28T02:33:36.596Z,36.28
2019-03-28T02:35:29.586Z,36.47
2019-03-28T02:36:29.643Z,36.47
2019-03-28T02:38:22.643Z,36.76
2019-03-28T02:39:22.684Z,36.18
2019-03-28T02:41:15.671Z,36.57
2019-03-28T02:42:15.718Z,36.66
2019-03-28T02:44:08.761Z,36.57
2019-03-28T02:45:08.755Z,36.76
2019-03-28T02:47:01.768Z,36.57
2019-03-28T02:48:02.068Z,36.47
2019-03-28T02:49:54.780Z,36.76
2019-03-28T02:50:54.838Z,36.47
2019-03-28T02:52:47.912Z,36.66
2019-03-28T02:53:47.950Z,36.08
2019-03-28T02:55:40.926Z,35.33
2019-03-28T02:56:41.746Z,36.37
2019-03-28T02:58:33.984Z,36.85
2019-03-28T02:59:34.025Z,37.61
2019-03-28T03:01:30.157Z,35.23
2019-03-28T03:02:27.070Z,34.94
2019-03-28T03:04:20.059Z,35.23
2019-03-28T03:05:20.107Z,35.04
2019-03-28T03:07:13.081Z,35.99
2019-03-28T03:08:13.134Z,35.89
2019-03-28T03:10:06.146Z,36.18
2019-03-28T03:11:06.173Z,35.61
2019-03-28T03:12:59.168Z,35.42
2019-03-28T03:13:59.205Z,35.33
2019-03-28T03:15:52.211Z,36.37
2019-03-28T03:16:52.243Z,36.08
2019-03-28T03:18:45.229Z,35.80
2019-03-28T03:19:45.282Z,34.28
2019-03-28T03:21:38.292Z,33.99
2019-03-28T03:22:38.320Z,33.90
2019-03-28T03:24:31.301Z,32.66
2019-03-28T03:25:31.358Z,32.95
2019-03-28T03:27:24.354Z,33.33
2019-03-28T03:28:24.400Z,33.42
2019-03-28T03:30:17.372Z,32.56
2019-03-28T03:31:20.905Z,32.28
2019-03-28T03:33:10.434Z,32.85
2019-03-28T03:34:10.470Z,32.09
2019-03-28T03:36:03.464Z,32.09
2019-03-28T03:37:04.013Z,31.32
2019-03-28T03:38:56.519Z,32.56
2019-03-28T03:39:56.566Z,31.61
2019-03-28T03:41:49.559Z,30.85
2019-03-28T03:42:49.599Z,31.42
2019-03-28T03:44:42.622Z,30.57
2019-03-28T03:45:42.657Z,30.09
2019-03-28T03:47:35.670Z,30.18
2019-03-28T03:48:35.771Z,30.09
2019-03-28T03:50:29.190Z,29.61
2019-03-28T03:51:29.252Z,29.52
2019-03-28T03:53:22.234Z,30.28
2019-03-28T03:54:22.290Z,30.47
2019-03-28T03:56:15.264Z,30.09
2019-03-28T03:57:15.321Z,29.23
2019-03-28T03:59:08.317Z,28.28
2019-03-28T04:00:08.369Z,28.85
2019-03-28T04:02:01.357Z,29.52
2019-03-28T04:03:02.295Z,29.71
2019-03-28T04:04:56.592Z,29.23
2019-03-28T04:05:54.446Z,29.04
2019-03-28T04:07:47.441Z,28.38
2019-03-28T04:08:47.480Z,28.38
2019-03-28T04:10:40.491Z,29.14
2019-03-28T04:11:40.523Z,29.14
2019-03-28T04:13:33.521Z,28.09
2019-03-28T04:14:33.552Z,27.71
2019-03-28T04:16:26.549Z,27.04
2019-03-28T04:17:26.604Z,26.18
2019-03-28T04:19:19.578Z,25.33
2019-03-28T04:20:19.634Z,24.85
2019-03-28T04:22:12.634Z,25.04
2019-03-28T04:23:12.713Z,24.28
2019-03-28T04:25:05.652Z,24.09
2019-03-28T04:26:06.010Z,24.57
2019-03-28T04:27:58.735Z,25.33
2019-03-28T04:28:58.749Z,24.85
2019-03-28T04:30:51.726Z,25.04
2019-03-28T04:31:51.797Z,24.47
2019-03-28T04:33:44.792Z,24.09
2019-03-28T04:34:44.821Z,24.09
2019-03-28T04:36:37.874Z,23.71
2019-03-28T04:37:37.909Z,23.61
2019-03-28T04:39:30.906Z,23.80
2019-03-28T04:40:30.966Z,23.80
2019-03-28T04:42:23.993Z,24.47
2019-03-28T04:43:24.015Z,24.93
2019-03-28T04:45:17.009Z,24.38
2019-03-28T04:46:17.053Z,25.04
2019-03-28T04:48:10.032Z,25.99
2019-03-28T04:49:10.104Z,25.23
2019-03-28T04:51:03.650Z,23.99
2019-03-28T04:52:03.702Z,23.14
2019-03-28T04:53:56.692Z,23.42
2019-03-28T04:54:56.741Z,23.23
2019-03-28T04:56:49.721Z,23.14
2019-03-28T04:57:49.769Z,22.66
2019-03-28T04:59:42.777Z,23.04
2019-03-28T05:00:42.818Z,23.33
2019-03-28T05:02:35.833Z,23.52
2019-03-28T05:03:35.862Z,23.14
2019-03-28T05:05:28.872Z,23.42
2019-03-28T05:06:28.902Z,23.23
2019-03-28T05:08:21.890Z,23.61
2019-03-28T05:09:21.993Z,24.28
2019-03-28T05:11:14.945Z,24.09
2019-03-28T05:12:14.986Z,23.52
2019-03-28T05:14:08.061Z,23.04
2019-03-28T05:15:08.105Z,22.55
2019-03-28T05:17:01.159Z,22.75
2019-03-28T05:18:01.169Z,22.94
2019-03-28T05:19:54.130Z,23.04
2019-03-28T05:20:54.200Z,23.14
2019-03-28T05:22:47.202Z,23.33
2019-03-28T05:23:47.225Z,23.90
2019-03-28T05:25:40.266Z,24.38
2019-03-28T05:26:40.253Z,24.57
2019-03-28T05:28:33.322Z,23.80
2019-03-28T05:29:33.334Z,22.85
2019-03-28T05:31:26.373Z,22.66
2019-03-28T05:32:26.443Z,22.85
2019-03-28T05:34:19.386Z,22.66
2019-03-28T05:35:19.437Z,23.14
2019-03-28T05:37:12.449Z,22.47
2019-03-28T05:38:12.507Z,22.19
2019-03-28T05:40:05.488Z,22.09
2019-03-28T05:41:05.540Z,21.71
2019-03-28T05:42:58.571Z,22.19
2019-03-28T05:43:58.649Z,21.61
2019-03-28T05:45:51.636Z,22.19
2019-03-28T05:46:51.806Z,22.19
2019-03-28T05:48:44.672Z,22.47
2019-03-28T05:49:44.734Z,22.28
2019-03-28T05:51:37.716Z,22.19
2019-03-28T05:52:37.762Z,22.75
2019-03-28T05:54:30.767Z,22.75
2019-03-28T05:55:30.861Z,22.66
2019-03-28T05:57:24.347Z,23.14
2019-03-28T05:58:24.388Z,22.75
2019-03-28T06:00:17.398Z,22.19
2019-03-28T06:01:17.421Z,22.66
2019-03-28T06:03:10.422Z,22.28
2019-03-28T06:04:10.481Z,22.19
2019-03-28T06:06:03.503Z,22.75
2019-03-28T06:07:03.527Z,22.66
2019-03-28T06:08:56.536Z,22.94
2019-03-28T06:09:56.570Z,22.38
2019-03-28T06:11:52.780Z,22.75
2019-03-28T06:12:49.607Z,22.56
2019-03-28T06:14:42.614Z,22.75
2019-03-28T06:15:42.652Z,22.19
2019-03-28T06:17:35.652Z,22.38
2019-03-28T06:18:35.690Z,22.56
2019-03-28T06:20:28.682Z,23.04
2019-03-28T06:21:28.735Z,23.23
2019-03-28T06:23:21.729Z,22.94
2019-03-28T06:24:21.774Z,22.75
2019-03-28T06:26:15.562Z,22.94
2019-03-28T06:27:14.825Z,22.94
2019-03-28T06:29:08.757Z,22.75
2019-03-28T06:30:07.873Z,22.66
2019-03-28T06:32:00.865Z,22.47
2019-03-28T06:33:00.903Z,22.94
2019-03-28T06:34:53.896Z,22.56
2019-03-28T06:35:53.941Z,22.66
2019-03-28T06:37:46.949Z,22.75
2019-03-28T06:38:46.988Z,22.85
2019-03-28T06:40:39.977Z,22.94
2019-03-28T06:41:40.032Z,22.94
2019-03-28T06:43:33.036Z,24.09
2019-03-28T06:44:33.076Z,24.28
2019-03-28T06:46:26.068Z,24.85
2019-03-28T06:47:26.124Z,25.33
2019-03-28T06:49:19.116Z,25.61
2019-03-28T06:50:19.151Z,25.72
2019-03-28T06:52:12.155Z,25.91
2019-03-28T06:53:12.642Z,25.82
2019-03-28T06:55:05.184Z,26.86
2019-03-28T06:56:05.229Z,27.34
2019-03-28T06:57:59.728Z,27.81
2019-03-28T06:58:59.761Z,28.01
2019-03-28T07:00:52.740Z,28.39
2019-03-28T07:01:52.799Z,29.15
2019-03-28T07:03:47.367Z,29.53
2019-03-28T07:04:45.838Z,29.82
2019-03-28T07:06:38.823Z,30.29
2019-03-28T07:07:38.887Z,29.82
2019-03-28T07:09:31.891Z,29.91
2019-03-28T07:10:31.919Z,29.25
2019-03-28T07:12:24.955Z,29.25
2019-03-28T07:13:24.955Z,29.15
2019-03-28T07:15:17.958Z,29.07
2019-03-28T07:16:20.993Z,29.45
2019-03-28T07:18:10.976Z,31.26
2019-03-28T07:19:11.041Z,33.74
2019-03-28T07:21:04.041Z,34.41
2019-03-28T07:22:04.081Z,34.12
2019-03-28T07:23:57.064Z,33.93
2019-03-28T07:24:57.123Z,33.36
2019-03-28T07:26:50.123Z,33.91
2019-03-28T07:27:50.160Z,33.64
2019-03-28T07:29:50.821Z,32.98
2019-03-28T07:30:43.268Z,32.10
2019-03-28T07:32:36.267Z,32.79
2019-03-28T07:33:36.309Z,33.53
2019-03-28T07:35:29.307Z,32.96
2019-03-28T07:36:29.348Z,32.87
2019-03-28T07:38:22.339Z,31.45
2019-03-28T07:39:22.386Z,30.40
2019-03-28T07:41:16.540Z,30.69
2019-03-28T07:42:15.427Z,30.31
2019-03-28T07:44:08.425Z,34.12
2019-03-28T07:45:08.464Z,34.79
2019-03-28T07:47:01.453Z,32.88
2019-03-28T07:48:01.514Z,33.26
2019-03-28T07:49:54.508Z,38.03
2019-03-28T07:50:54.548Z,38.12
2019-03-28T07:52:47.540Z,39.48
2019-03-28T07:53:47.638Z,40.63
2019-03-28T07:55:40.587Z,41.67
2019-03-28T07:56:40.634Z,41.86
2019-03-28T07:58:33.649Z,45.39
2019-03-28T07:59:33.683Z,45.97
2019-03-28T08:01:26.670Z,44.92
2019-03-28T08:02:26.727Z,43.87
2019-03-28T08:04:19.726Z,44.63
2019-03-28T08:05:19.765Z,44.63
2019-03-28T08:07:12.745Z,45.87
2019-03-28T08:08:12.804Z,43.32
2019-03-28T08:10:05.827Z,48.28
2019-03-28T08:11:05.858Z,48.75
2019-03-28T08:12:58.863Z,49.71
2019-03-28T08:13:58.924Z,51.45
2019-03-28T08:15:51.929Z,55.55
2019-03-28T08:16:51.971Z,55.08
2019-03-28T08:18:45.470Z,57.50
2019-03-28T08:19:45.017Z,60.55
2019-03-28T08:21:38.019Z,67.36
2019-03-28T08:22:38.062Z,70.59
2019-03-28T08:24:31.070Z,85.31
2019-03-28T08:25:31.110Z,87.17
2019-03-28T08:27:24.126Z,87.21
2019-03-28T08:28:24.164Z,87.08
2019-03-28T08:30:19.441Z,86.31
2019-03-28T08:31:17.213Z,87.70
2019-03-28T08:33:10.210Z,87.21
2019-03-28T08:34:10.260Z,87.02
2019-03-28T08:36:03.254Z,86.31
2019-03-28T08:37:03.330Z,86.02
2019-03-28T08:38:56.322Z,86.79
2019-03-28T08:39:56.367Z,86.64
2019-03-28T08:41:50.592Z,86.50
2019-03-28T08:42:49.420Z,86.49
2019-03-28T08:44:42.503Z,81.63
2019-03-28T08:45:42.477Z,81.15
2019-03-28T08:47:35.464Z,81.72
2019-03-28T08:48:35.525Z,78.27
2019-03-28T08:50:28.534Z,75.00
2019-03-28T08:51:28.654Z,72.83
2019-03-28T08:53:21.571Z,72.31
2019-03-28T08:54:21.631Z,72.60
2019-03-28T08:56:14.637Z,74.04
2019-03-28T08:57:14.688Z,76.15
2019-03-28T08:59:07.707Z,72.48
2019-03-28T09:00:07.750Z,70.11
2019-03-28T09:02:00.785Z,69.89
2019-03-28T09:03:00.807Z,72.44
2019-03-28T09:04:53.806Z,74.10
2019-03-28T09:05:53.891Z,77.65
2019-03-28T09:07:46.890Z,78.77
2019-03-28T09:08:46.943Z,78.38
2019-03-28T09:10:39.940Z,77.42
2019-03-28T09:11:39.991Z,77.71
2019-03-28T09:13:32.986Z,79.01
2019-03-28T09:14:33.046Z,79.97
2019-03-28T09:16:26.071Z,81.70
2019-03-28T09:17:26.098Z,80.55
2019-03-28T09:19:19.092Z,83.48
2019-03-28T09:20:19.153Z,83.67
2019-03-28T09:22:12.155Z,83.48
2019-03-28T09:23:12.208Z,82.90
2019-03-28T09:25:05.222Z,83.25
2019-03-28T09:26:05.264Z,83.53
2019-03-28T09:27:58.269Z,83.25
2019-03-28T09:28:58.320Z,83.05
2019-03-28T09:30:51.327Z,84.11
2019-03-28T09:31:51.382Z,83.72
2019-03-28T09:33:44.389Z,83.05
2019-03-28T09:34:44.431Z,83.34
2019-03-28T09:36:37.427Z,81.81
2019-03-28T09:37:37.488Z,81.85
2019-03-28T09:39:30.517Z,83.72
2019-03-28T09:40:30.546Z,84.34
2019-03-28T09:42:23.546Z,81.75
2019-03-28T09:43:23.592Z,81.66
2019-03-28T09:45:16.587Z,82.46
2019-03-28T09:46:16.648Z,80.70
2019-03-28T09:48:11.758Z,80.79
2019-03-28T09:49:09.706Z,80.70
2019-03-28T09:51:02.702Z,80.32
2019-03-28T09:52:02.765Z,83.76
2019-03-28T09:53:55.777Z,82.52
2019-03-28T09:54:55.822Z,82.14
2019-03-28T09:56:48.843Z,81.66
2019-03-28T09:57:48.876Z,82.14
2019-03-28T09:59:41.891Z,84.58
2019-03-28T10:00:41.936Z,85.83
2019-03-28T10:02:34.946Z,84.82
2019-03-28T10:03:34.991Z,84.25
2019-03-28T10:05:28.001Z,84.77
2019-03-28T10:06:28.044Z,83.61
2019-03-28T10:08:21.042Z,82.04
2019-03-28T10:09:21.101Z,80.83
2019-03-28T10:11:14.130Z,80.41
2019-03-28T10:12:14.170Z,80.51
2019-03-28T10:14:07.155Z,80.60
2019-03-28T10:15:07.220Z,80.51
2019-03-28T10:17:00.795Z,81.18
2019-03-28T10:18:00.279Z,80.89
2019-03-28T10:19:53.296Z,83.19
2019-03-28T10:20:53.336Z,81.60
2019-03-28T10:22:46.327Z,81.37
2019-03-28T10:23:46.389Z,80.32
2019-03-28T10:25:39.394Z,82.08
2019-03-28T10:26:39.671Z,83.33
2019-03-28T10:28:32.465Z,80.83
2019-03-28T10:29:32.507Z,78.69
2019-03-28T10:31:25.509Z,77.92
2019-03-28T10:32:25.560Z,78.20
2019-03-28T10:34:18.595Z,78.97
2019-03-28T10:35:18.628Z,79.55
2019-03-28T10:37:11.628Z,79.64
2019-03-28T10:38:11.681Z,78.30
2019-03-28T10:40:04.686Z,77.53
2019-03-28T10:41:04.750Z,76.57
2019-03-28T10:42:57.735Z,74.95
2019-03-28T10:43:57.798Z,74.76
2019-03-28T10:45:50.811Z,77.15
2019-03-28T10:46:50.853Z,79.55
2019-03-28T10:48:43.843Z,78.02
2019-03-28T10:49:43.905Z,78.30
2019-03-28T10:51:36.915Z,78.97
2019-03-28T10:52:36.959Z,78.69
2019-03-28T10:54:29.989Z,77.78
2019-03-28T10:55:30.028Z,78.27
2019-03-28T10:57:29.889Z,78.36
2019-03-28T10:58:24.650Z,78.61
2019-03-28T11:00:24.154Z,81.96
2019-03-28T11:01:31.095Z,82.63
2019-03-28T11:03:09.684Z,82.63
2019-03-28T11:04:09.722Z,81.57
2019-03-28T11:06:02.711Z,82.06
2019-03-28T11:07:02.772Z,84.16
2019-03-28T11:08:55.774Z,84.55
2019-03-28T11:09:55.826Z,84.59
2019-03-28T11:11:48.836Z,85.17
2019-03-28T11:12:48.877Z,84.35
2019-03-28T11:14:41.885Z,83.59
2019-03-28T11:15:41.930Z,83.30
2019-03-28T11:17:34.948Z,83.11
2019-03-28T11:18:34.990Z,81.96
2019-03-28T11:20:27.996Z,81.92
2019-03-28T11:21:28.048Z,81.92
2019-03-28T11:23:21.050Z,82.15
2019-03-28T11:24:21.106Z,81.73
2019-03-28T11:26:14.107Z,81.73
2019-03-28T11:27:14.159Z,82.01
2019-03-28T11:29:07.797Z,82.30
2019-03-28T11:30:07.216Z,84.12
2019-03-28T11:32:00.195Z,84.59
2019-03-28T11:33:00.261Z,84.69
2019-03-28T11:34:53.273Z,86.13
2019-03-28T11:35:53.313Z,86.13
2019-03-28T11:37:46.298Z,85.84
2019-03-28T11:38:46.383Z,85.27
2019-03-28T11:40:42.462Z,84.69
2019-03-28T11:41:39.422Z,84.69
2019-03-28T11:43:32.422Z,85.89
2019-03-28T11:44:32.462Z,85.75
2019-03-28T11:46:25.469Z,85.71
2019-03-28T11:47:25.509Z,85.80
2019-03-28T11:49:18.515Z,86.08
2019-03-28T11:50:18.568Z,86.08
2019-03-28T11:52:11.569Z,86.18
2019-03-28T11:53:11.622Z,86.47
2019-03-28T11:55:04.637Z,85.89
2019-03-28T11:56:04.689Z,85.99
2019-03-28T11:57:58.206Z,86.08
2019-03-28T11:58:58.243Z,86.28
2019-03-28T12:00:51.231Z,86.18
2019-03-28T12:02:00.038Z,86.18
2019-03-28T12:03:44.300Z,85.80
2019-03-28T12:04:44.340Z,86.08
2019-03-28T12:06:37.332Z,85.89
2019-03-28T12:07:37.387Z,86.13
2019-03-28T12:09:30.466Z,86.08
2019-03-28T12:10:30.439Z,85.27
2019-03-28T12:12:23.458Z,86.85
2019-03-28T12:13:23.507Z,86.28
2019-03-28T12:15:16.488Z,85.61
2019-03-28T12:16:17.095Z,85.71
2019-03-28T12:18:09.554Z,85.65
2019-03-28T12:19:09.599Z,85.08
2019-03-28T12:21:02.614Z,84.79
2019-03-28T12:22:02.650Z,84.79
2019-03-28T12:23:55.655Z,85.55
2019-03-28T12:24:55.710Z,84.59
2019-03-28T12:26:48.708Z,84.31
2019-03-28T12:27:48.773Z,84.17
2019-03-28T12:29:41.786Z,84.79
2019-03-28T12:30:41.829Z,84.46
2019-03-28T12:32:34.830Z,84.55
2019-03-28T12:33:34.884Z,84.50
2019-03-28T12:35:27.919Z,84.22
2019-03-28T12:36:27.931Z,84.22
2019-03-28T12:38:20.949Z,83.64
2019-03-28T12:39:21.086Z,84.79
2019-03-28T12:41:13.981Z,84.50
2019-03-28T12:42:14.034Z,84.79
2019-03-28T12:44:07.039Z,84.98
2019-03-28T12:45:07.083Z,85.08
2019-03-28T12:47:00.097Z,83.45
2019-03-28T12:48:00.137Z,83.45
2019-03-28T12:49:53.128Z,85.08
2019-03-28T12:50:58.691Z,85.65
2019-03-28T12:52:46.219Z,83.64
2019-03-28T12:53:46.249Z,83.36
2019-03-28T12:55:39.240Z,82.78
2019-03-28T12:56:39.302Z,81.54
2019-03-28T12:58:32.304Z,81.25
2019-03-28T12:59:33.690Z,81.34
2019-03-28T13:01:25.368Z,80.38
2019-03-28T13:02:31.493Z,80.67
2019-03-28T13:04:18.400Z,80.10
2019-03-28T13:05:18.463Z,80.04
2019-03-28T13:07:11.490Z,80.04
2019-03-28T13:08:11.533Z,80.71
2019-03-28T13:10:04.538Z,79.85
2019-03-28T13:11:04.588Z,80.33
2019-03-28T13:12:57.598Z,83.01
2019-03-28T13:13:57.643Z,82.92
2019-03-28T13:15:50.644Z,82.06
2019-03-28T13:16:50.697Z,82.43
2019-03-28T13:18:43.703Z,82.24
2019-03-28T13:19:43.754Z,81.67
2019-03-28T13:21:36.751Z,78.80
2019-03-28T13:22:36.813Z,78.51
2019-03-28T13:24:29.821Z,79.57
2019-03-28T13:25:29.866Z,79.47
2019-03-28T13:27:22.852Z,81.44
2019-03-28T13:28:22.912Z,81.54
2019-03-28T13:30:15.923Z,77.36
2019-03-28T13:31:15.966Z,77.26
2019-03-28T13:33:08.952Z,77.46
2019-03-28T13:34:09.013Z,76.40
2019-03-28T13:36:02.028Z,77.55
2019-03-28T13:37:02.070Z,79.57
2019-03-28T13:38:55.083Z,80.14
2019-03-28T13:39:55.143Z,79.60
2019-03-28T13:41:48.118Z,78.51
2019-03-28T13:42:48.176Z,80.24
2019-03-28T13:44:41.188Z,78.13
2019-03-28T13:45:41.230Z,80.33
2019-03-28T13:47:34.471Z,80.33
2019-03-28T13:48:34.592Z,80.24
2019-03-28T13:50:27.290Z,78.42
2019-03-28T13:51:27.332Z,77.94
2019-03-28T13:53:20.431Z,78.51
2019-03-28T13:54:23.195Z,77.75
2019-03-28T13:56:13.406Z,76.12
2019-03-28T13:57:13.450Z,75.26
2019-03-28T13:59:06.444Z,74.49
2019-03-28T14:00:06.504Z,74.11
2019-03-28T14:01:59.520Z,74.68
2019-03-28T14:02:59.563Z,75.16
2019-03-28T14:04:52.555Z,76.40
2019-03-28T14:05:52.619Z,75.87
2019-03-28T14:07:45.627Z,76.82
2019-03-28T14:08:45.673Z,75.26
2019-03-28T14:10:38.671Z,74.72
2019-03-28T14:11:38.734Z,74.52
2019-03-28T14:13:31.742Z,73.72
2019-03-28T14:14:31.802Z,74.62
2019-03-28T14:16:24.814Z,74.72
2019-03-28T14:17:24.857Z,78.74
2019-03-28T14:19:17.879Z,77.94
2019-03-28T14:20:17.921Z,76.21
2019-03-28T14:22:10.917Z,78.03
2019-03-28T14:23:10.979Z,77.46
2019-03-28T14:25:03.982Z,76.31
2019-03-28T14:26:04.033Z,76.31
2019-03-28T14:27:57.023Z,76.69
2019-03-28T14:28:57.078Z,78.03
2019-03-28T14:30:50.097Z,78.42
2019-03-28T14:31:50.134Z,76.98
2019-03-28T14:33:43.133Z,76.60
2019-03-28T14:34:43.196Z,77.46
2019-03-28T14:36:36.208Z,76.12
2019-03-28T14:37:36.253Z,75.45
2019-03-28T14:39:29.251Z,75.64
2019-03-28T14:40:29.311Z,77.08
2019-03-28T14:42:22.359Z,76.31
2019-03-28T14:43:22.362Z,75.83
2019-03-28T14:45:15.377Z,75.79
2019-03-28T14:46:15.445Z,77.75
2019-03-28T14:48:08.429Z,77.13
2019-03-28T14:49:08.577Z,77.42
2019-03-28T14:51:01.560Z,81.05
2019-03-28T14:52:01.539Z,78.66
2019-03-28T14:53:55.764Z,78.19
2019-03-28T14:54:54.627Z,77.70
2019-03-28T14:56:47.693Z,78.28
2019-03-28T14:57:47.735Z,78.28
2019-03-28T14:59:40.747Z,78.09
2019-03-28T15:00:40.783Z,77.90
2019-03-28T15:02:33.770Z,79.05
2019-03-28T15:03:33.833Z,77.51
2019-03-28T15:05:26.844Z,77.42
2019-03-28T15:06:26.881Z,77.70
2019-03-28T15:08:19.900Z,80.38
2019-03-28T15:09:19.940Z,82.01
2019-03-28T15:11:12.953Z,79.43
2019-03-28T15:12:12.991Z,80.67
2019-03-28T15:14:05.990Z,81.15
2019-03-28T15:15:06.050Z,79.43
2019-03-28T15:16:59.081Z,78.28
2019-03-28T15:17:59.103Z,78.81
2019-03-28T15:19:52.097Z,83.03
2019-03-28T15:20:52.169Z,84.17
2019-03-28T15:22:45.162Z,85.13
2019-03-28T15:23:45.202Z,85.51
2019-03-28T15:25:38.213Z,85.61
2019-03-28T15:26:38.259Z,85.13
2019-03-28T15:28:31.262Z,86.04
2019-03-28T15:29:31.304Z,86.08
2019-03-28T15:31:24.345Z,85.75
2019-03-28T15:32:24.351Z,85.85
2019-03-28T15:34:17.345Z,85.66
2019-03-28T15:35:17.407Z,86.14
2019-03-28T15:37:10.425Z,85.75
2019-03-28T15:38:10.470Z,85.57
2019-03-28T15:40:03.476Z,86.04
2019-03-28T15:41:03.519Z,85.94
2019-03-28T15:42:56.524Z,85.47
2019-03-28T15:43:56.567Z,85.28
2019-03-28T15:45:49.560Z,84.52
2019-03-28T15:46:49.674Z,84.61
2019-03-28T15:48:42.622Z,85.66
2019-03-28T15:49:42.665Z,84.52
2019-03-28T15:51:35.682Z,84.42
2019-03-28T15:52:35.721Z,84.66
2019-03-28T15:54:28.706Z,84.52
2019-03-28T15:55:28.771Z,84.70
2019-03-28T15:57:21.768Z,84.76
2019-03-28T15:58:23.436Z,84.32
2019-03-28T16:00:14.814Z,84.52
2019-03-28T16:01:14.862Z,84.52
2019-03-28T16:03:07.870Z,84.70
2019-03-28T16:04:07.904Z,84.80
2019-03-28T16:06:00.980Z,84.47
2019-03-28T16:07:01.045Z,84.85
2019-03-28T16:08:54.558Z,84.38
2019-03-28T16:09:54.594Z,84.09
2019-03-28T16:11:47.589Z,84.19
2019-03-28T16:12:47.648Z,84.28
2019-03-28T16:14:40.662Z,84.85
2019-03-28T16:15:40.704Z,84.47
2019-03-28T16:17:33.689Z,84.52
2019-03-28T16:18:33.759Z,83.80
2019-03-28T16:20:26.754Z,83.13
2019-03-28T16:21:27.082Z,83.42
2019-03-28T16:23:19.832Z,83.51
2019-03-28T16:24:19.873Z,83.13
2019-03-28T16:26:12.898Z,83.51
2019-03-28T16:27:12.940Z,83.13
2019-03-28T16:29:07.284Z,83.33
2019-03-28T16:30:05.992Z,83.04
2019-03-28T16:31:59.012Z,83.04
2019-03-28T16:32:59.060Z,82.84
2019-03-28T16:34:52.146Z,82.94
2019-03-28T16:35:52.118Z,83.13
2019-03-28T16:37:45.128Z,83.13
2019-03-28T16:38:45.823Z,83.04
2019-03-28T16:40:38.193Z,82.18
2019-03-28T16:41:38.235Z,81.70
2019-03-28T16:43:31.226Z,83.13
2019-03-28T16:44:31.281Z,83.13
2019-03-28T16:46:24.292Z,83.04
2019-03-28T16:47:24.378Z,83.42
2019-03-28T16:49:17.353Z,83.13
2019-03-28T16:50:17.438Z,82.94
2019-03-28T16:52:10.416Z,83.28
2019-03-28T16:53:10.457Z,82.46
2019-03-28T16:55:03.460Z,82.46
2019-03-28T16:56:03.503Z,82.46
2019-03-28T16:57:56.492Z,82.65
2019-03-28T16:58:56.551Z,82.32
2019-03-28T17:00:49.553Z,82.75
2019-03-28T17:01:49.693Z,82.14
2019-03-28T17:03:42.604Z,82.23
2019-03-28T17:04:42.646Z,83.09
2019-03-28T17:06:37.160Z,81.85
2019-03-28T17:07:37.201Z,82.90
2019-03-28T17:09:30.205Z,83.33
2019-03-28T17:10:30.333Z,83.00
2019-03-28T17:12:23.263Z,83.00
2019-03-28T17:13:23.305Z,82.42
2019-03-28T17:15:16.311Z,82.81
2019-03-28T17:16:16.849Z,81.85
2019-03-28T17:18:09.360Z,83.18
2019-03-28T17:19:09.402Z,82.52
2019-03-28T17:21:02.422Z,82.52
2019-03-28T17:22:02.481Z,82.32
2019-03-28T17:23:55.475Z,81.56
2019-03-28T17:24:55.525Z,81.47
2019-03-28T17:26:48.507Z,81.95
2019-03-28T17:27:48.564Z,81.66
2019-03-28T17:29:41.583Z,81.62
2019-03-28T17:30:41.617Z,80.66
2019-03-28T17:32:36.758Z,80.80
2019-03-28T17:33:34.669Z,79.23
2019-03-28T17:35:27.688Z,77.99
2019-03-28T17:36:27.721Z,79.61
2019-03-28T17:38:20.746Z,78.89
2019-03-28T17:39:20.766Z,80.80
2019-03-28T17:41:13.779Z,81.09
2019-03-28T17:42:13.821Z,81.37
2019-03-28T17:44:07.856Z,82.23
2019-03-28T17:45:06.868Z,80.61
2019-03-28T17:46:59.856Z,82.32
2019-03-28T17:47:59.922Z,81.56
2019-03-28T17:49:52.969Z,81.27
2019-03-28T17:50:52.989Z,81.76
2019-03-28T17:52:45.977Z,79.36
2019-03-28T17:53:46.043Z,80.51
2019-03-28T17:55:39.046Z,80.90
2019-03-28T17:56:39.080Z,80.61
2019-03-28T17:58:32.082Z,81.76
2019-03-28T17:59:32.122Z,82.81
2019-03-28T18:01:25.161Z,83.53
2019-03-28T18:02:25.212Z,83.24
2019-03-28T18:04:23.219Z,82.42
2019-03-28T18:05:18.213Z,82.95
2019-03-28T18:07:11.743Z,82.86
2019-03-28T18:08:11.775Z,82.95
2019-03-28T18:10:04.755Z,83.24
2019-03-28T18:11:04.816Z,83.72
2019-03-28T18:12:57.836Z,83.24
2019-03-28T18:13:57.868Z,83.14
2019-03-28T18:15:50.864Z,82.86
2019-03-28T18:16:50.922Z,83.14
2019-03-28T18:18:43.941Z,83.05
2019-03-28T18:19:43.972Z,83.43
2019-03-28T18:21:36.968Z,83.14
2019-03-28T18:22:37.030Z,83.24
2019-03-28T18:24:30.552Z,83.62
2019-03-28T18:25:30.523Z,83.05
2019-03-28T18:27:23.058Z,83.14
2019-03-28T18:28:23.120Z,81.62
2019-03-28T18:30:16.134Z,82.57
2019-03-28T18:31:16.165Z,81.90
2019-03-28T18:33:09.154Z,82.00
2019-03-28T18:34:12.189Z,83.05